Time;durP1;ratioP1;P1;durP2;ratioP2;P2;SDS_P1;SDS_P2;PMS_P1;PMS_P2;Temp;Humidity;BMP_temperature;BMP_pressure;BME280_temperature;BME280_humidity;BME280_pressure;Samples;Min_cycle;Max_cycle;Signal;HPM_P1;HPM_P2
2021/12/24 00:00:42;;;;;;;21.93;12.67;;;1.00;99.90;;;;;;5015202;28;20610;-76
2021/12/24 00:03:08;;;;;;;26.63;14.40;;;0.90;99.90;;;;;;5032833;28;20653;-76
2021/12/24 00:05:35;;;;;;;30.73;13.87;;;0.90;99.90;;;;;;5032564;28;20186;-76
2021/12/24 00:08:00;;;;;;;23.37;13.67;;;0.90;99.90;;;;;;5032716;28;20205;-76
2021/12/24 00:10:26;;;;;;;23.63;14.57;;;1.00;99.90;;;;;;5014866;28;20662;-76
2021/12/24 00:13:03;;;;;;;23.07;13.63;;;1.00;99.90;;;;;;5015012;28;20600;-75
2021/12/24 00:36:47;;;;;;;20.83;13.17;;;1.30;99.90;;;;;;5020600;28;20333;-76
2021/12/24 00:39:13;;;;;;;20.47;13.70;;;1.20;99.90;;;;;;5032441;28;20175;-76
2021/12/24 00:41:39;;;;;;;24.37;13.87;;;1.20;99.90;;;;;;5015532;28;20663;-76
2021/12/24 00:44:05;;;;;;;28.57;15.33;;;1.60;99.90;;;;;;5036148;28;20175;-76
2021/12/24 00:46:31;;;;;;;22.67;13.93;;;1.30;99.90;;;;;;5035976;28;20708;-76
2021/12/24 00:49:00;;;;;;;23.00;13.47;;;1.30;99.90;;;;;;5036116;28;20186;-76
2021/12/24 00:51:54;;;;;;;24.77;13.23;;;1.30;99.90;;;;;;5018077;28;20746;-76
2021/12/24 00:57:02;;;;;;;23.43;13.10;;;1.30;99.90;;;;;;5036298;28;20196;-76
2021/12/24 00:59:27;;;;;;;25.97;14.27;;;1.40;99.90;;;;;;5035879;28;20545;-76
2021/12/24 01:01:53;;;;;;;22.30;13.67;;;1.30;99.90;;;;;;5035804;28;20181;-76
2021/12/24 01:04:18;;;;;;;24.40;13.80;;;1.30;99.90;;;;;;5018655;28;20571;-76
2021/12/24 01:06:45;;;;;;;21.57;13.93;;;1.30;99.90;;;;;;5080644;22;20685;-75
2021/12/24 01:09:11;;;;;;;20.07;13.17;;;1.30;99.90;;;;;;5013371;28;20701;-76
2021/12/24 01:11:36;;;;;;;23.57;14.20;;;1.30;99.90;;;;;;5017820;28;20190;-76
2021/12/24 01:14:02;;;;;;;23.10;13.73;;;1.30;99.90;;;;;;5035579;28;20229;-76
2021/12/24 01:16:39;;;;;;;24.10;13.57;;;1.30;99.90;;;;;;5017840;28;20175;-75
2021/12/24 01:19:11;;;;;;;22.43;14.23;;;1.40;99.90;;;;;;5026888;28;20201;-75
2021/12/24 01:24:27;;;;;;;22.23;13.83;;;1.30;99.90;;;;;;5029280;28;20621;-76
2021/12/24 01:42:48;;;;;;;30.07;15.73;;;1.40;99.90;;;;;;5035178;28;20550;-75
2021/12/24 01:45:32;;;;;;;27.40;14.93;;;1.50;99.90;;;;;;5035428;28;20190;-75
2021/12/24 01:48:01;;;;;;;24.00;14.63;;;2.00;99.90;;;;;;5035024;28;20198;-76
2021/12/24 01:50:29;;;;;;;27.93;14.13;;;2.40;99.90;;;;;;5018074;28;20189;-76
2021/12/24 01:52:56;;;;;;;21.23;14.77;;;2.80;99.90;;;;;;5034156;28;20669;-76
2021/12/24 01:55:23;;;;;;;24.23;13.97;;;3.10;99.90;;;;;;5034708;28;20177;-75
2021/12/24 01:57:49;;;;;;;23.37;14.83;;;3.30;99.90;;;;;;5034857;28;20683;-76
2021/12/24 02:00:22;;;;;;;23.07;14.43;;;3.30;99.90;;;;;;5034938;28;20167;-76
2021/12/24 02:02:48;;;;;;;24.73;14.33;;;3.40;99.90;;;;;;5017183;28;20174;-76
2021/12/24 02:05:14;;;;;;;20.97;13.97;;;3.50;99.90;;;;;;5017010;28;20166;-76
2021/12/24 02:07:41;;;;;;;23.47;14.13;;;3.50;99.90;;;;;;5033426;28;20242;-76
2021/12/24 02:10:09;;;;;;;24.97;14.77;;;3.60;99.90;;;;;;5012971;28;20201;-77
2021/12/24 02:12:36;;;;;;;23.13;13.87;;;3.50;99.90;;;;;;5016940;28;20178;-76
2021/12/24 02:15:11;;;;;;;24.73;14.43;;;3.40;99.90;;;;;;5016785;28;20183;-77
2021/12/24 02:28:38;;;;;;;19.17;12.97;;;3.70;99.90;;;;;;5020903;28;20217;-76
2021/12/24 02:31:07;;;;;;;16.07;11.93;;;3.70;99.90;;;;;;5020944;28;20647;-76
2021/12/24 02:33:33;;;;;;;15.47;11.17;;;3.70;99.90;;;;;;5007545;28;20205;-76
2021/12/24 02:35:58;;;;;;;16.27;11.93;;;3.70;99.90;;;;;;5015482;28;20179;-77
2021/12/24 02:38:24;;;;;;;17.97;12.20;;;3.70;99.90;;;;;;5033847;28;20230;-75
2021/12/24 02:40:50;;;;;;;15.50;11.70;;;3.80;99.90;;;;;;5033692;28;20179;-76
2021/12/24 02:43:19;;;;;;;16.73;11.03;;;3.90;99.90;;;;;;5018696;28;20186;-76
2021/12/24 02:45:48;;;;;;;15.67;11.63;;;4.00;99.90;;;;;;5034003;28;20168;-76
2021/12/24 02:48:47;;;;;;;15.23;11.33;;;4.00;99.90;;;;;;5030065;28;20197;-76
2021/12/24 02:53:58;;;;;;;16.80;10.97;;;4.00;99.90;;;;;;5009856;28;20206;-76
2021/12/24 02:56:31;;;;;;;17.10;11.30;;;4.00;99.90;;;;;;5033669;28;20250;-76
2021/12/24 02:58:59;;;;;;;17.73;11.53;;;4.00;99.90;;;;;;5033792;28;20204;-76
2021/12/24 03:01:28;;;;;;;14.97;10.93;;;4.00;99.90;;;;;;5016173;28;20593;-76
2021/12/24 03:03:54;;;;;;;14.67;11.27;;;3.90;99.90;;;;;;5033573;28;20726;-76
2021/12/24 03:06:23;;;;;;;18.73;11.47;;;3.80;99.90;;;;;;5030877;28;20198;-77
2021/12/24 03:08:49;;;;;;;16.20;10.87;;;3.70;99.90;;;;;;4989412;28;20187;-77
2021/12/24 03:11:14;;;;;;;20.40;12.53;;;3.50;99.90;;;;;;5013232;28;20183;-77
2021/12/24 03:13:41;;;;;;;17.70;11.43;;;3.20;99.90;;;;;;5028674;28;20696;-76
2021/12/24 03:16:07;;;;;;;18.47;11.83;;;3.00;99.90;;;;;;5029638;28;20723;-77
2021/12/24 03:18:35;;;;;;;21.17;12.87;;;2.80;99.90;;;;;;5029324;28;20256;-76
2021/12/24 03:21:10;;;;;;;18.63;12.37;;;2.60;99.90;;;;;;5023806;28;20175;-77
2021/12/24 03:26:20;;;;;;;19.83;12.50;;;2.20;99.90;;;;;;5031755;28;20228;-76
2021/12/24 03:28:46;;;;;;;19.73;12.80;;;2.10;99.90;;;;;;5030356;28;20676;-76
2021/12/24 03:31:11;;;;;;;22.00;13.17;;;2.00;99.90;;;;;;5006915;28;20266;-77
2021/12/24 03:33:38;;;;;;;16.93;12.13;;;2.00;99.90;;;;;;5012735;28;20171;-77
2021/12/24 03:36:06;;;;;;;21.03;12.47;;;2.00;99.90;;;;;;5030543;28;20170;-76
2021/12/24 03:38:35;;;;;;;18.83;12.20;;;2.10;99.90;;;;;;5012851;28;20310;-76
2021/12/24 03:41:01;;;;;;;17.73;11.50;;;2.10;99.90;;;;;;5012534;28;20186;-77
2021/12/24 03:43:26;;;;;;;20.03;12.10;;;2.10;99.90;;;;;;5030385;28;20677;-77
2021/12/24 03:48:24;;;;;;;14.20;10.73;;;2.60;99.90;;;;;;5030186;28;20194;-76
2021/12/24 03:51:23;;;;;;;15.20;10.37;;;2.70;99.90;;;;;;5030522;28;20285;-76
2021/12/24 03:56:43;;;;;;;14.27;10.53;;;3.10;99.90;;;;;;4930677;29;20190;-76
2021/12/24 03:59:09;;;;;;;14.50;10.47;;;3.20;99.90;;;;;;4930800;29;20166;-76
2021/12/24 04:01:35;;;;;;;18.37;11.30;;;3.30;99.90;;;;;;4970707;28;20189;-76
2021/12/24 04:04:02;;;;;;;13.47;10.47;;;3.30;99.90;;;;;;5030033;28;20178;-76
2021/12/24 04:06:27;;;;;;;14.93;10.60;;;3.30;99.90;;;;;;5012054;28;20171;-77
2021/12/24 04:08:53;;;;;;;15.70;10.47;;;3.20;99.90;;;;;;5012553;28;20276;-77
2021/12/24 04:11:19;;;;;;;14.47;10.30;;;3.30;99.90;;;;;;5030097;28;20204;-77
2021/12/24 04:13:45;;;;;;;14.50;10.37;;;3.30;99.90;;;;;;5013984;28;20171;-77
2021/12/24 04:16:11;;;;;;;16.67;11.40;;;3.10;99.90;;;;;;5032574;28;20174;-77
2021/12/24 04:26:37;;;;;;;15.50;10.60;;;2.70;99.90;;;;;;5037066;28;20205;-76
2021/12/24 04:29:04;;;;;;;16.03;10.77;;;2.60;99.90;;;;;;5036477;28;20175;-76
2021/12/24 04:31:40;;;;;;;15.27;10.67;;;2.40;99.90;;;;;;5036313;28;20237;-76
2021/12/24 04:34:06;;;;;;;15.17;10.60;;;2.30;99.90;;;;;;5030773;28;20540;-76
2021/12/24 05:03:12;;;;;;;18.57;12.93;;;2.50;99.90;;;;;;5022746;28;20197;-76
2021/12/24 05:08:18;;;;;;;16.30;11.70;;;2.70;99.90;;;;;;5015769;28;20218;-77
2021/12/24 05:10:44;;;;;;;14.70;11.37;;;2.90;99.90;;;;;;5004084;28;20217;-77
2021/12/24 05:13:13;;;;;;;12.80;9.83;;;2.90;99.90;;;;;;5017871;28;20176;-77
2021/12/24 05:15:41;;;;;;;14.77;10.53;;;2.90;99.90;;;;;;5017790;28;20179;-77
2021/12/24 05:18:37;;;;;;;14.87;10.37;;;2.80;99.90;;;;;;5010704;28;20282;-76
2021/12/24 05:23:39;;;;;;;11.57;9.60;;;2.70;99.90;;;;;;5035789;28;20217;-77
2021/12/24 05:26:05;;;;;;;15.07;10.13;;;2.60;99.90;;;;;;5019836;28;20239;-77
2021/12/24 05:28:31;;;;;;;14.53;9.53;;;2.50;99.90;;;;;;5011232;28;20199;-76
2021/12/24 05:30:57;;;;;;;14.50;10.00;;;2.50;99.90;;;;;;5017896;28;20696;-77
2021/12/24 05:33:23;;;;;;;13.73;9.57;;;2.40;99.90;;;;;;5035608;28;20673;-77
2021/12/24 05:35:48;;;;;;;15.77;9.87;;;2.30;99.90;;;;;;5017452;28;20208;-77
2021/12/24 05:38:15;;;;;;;13.67;10.70;;;2.40;99.90;;;;;;5034987;28;20245;-77
2021/12/24 05:40:41;;;;;;;15.10;10.30;;;2.40;99.90;;;;;;5035154;28;20187;-76
2021/12/24 05:43:07;;;;;;;13.50;10.67;;;2.40;99.90;;;;;;5017203;28;20178;-77
2021/12/24 05:45:33;;;;;;;12.53;10.87;;;2.40;99.90;;;;;;5035144;28;20525;-77
2021/12/24 05:47:59;;;;;;;13.60;10.47;;;2.50;99.90;;;;;;5017215;28;20680;-77
2021/12/24 05:50:25;;;;;;;13.77;10.37;;;2.50;99.90;;;;;;5017706;28;20191;-77
2021/12/24 05:52:50;;;;;;;14.87;10.43;;;2.60;99.90;;;;;;5034815;28;20182;-76
2021/12/24 05:55:16;;;;;;;14.73;9.57;;;2.60;99.90;;;;;;5035353;28;20185;-76
2021/12/24 05:57:42;;;;;;;13.77;9.30;;;2.60;99.90;;;;;;5036201;28;20214;-76
2021/12/24 06:00:09;;;;;;;13.97;9.93;;;2.60;99.90;;;;;;5016159;28;20600;-78
2021/12/24 06:02:36;;;;;;;12.70;9.60;;;2.60;99.90;;;;;;5009764;28;20204;-77
2021/12/24 06:05:02;;;;;;;14.27;10.30;;;2.60;99.90;;;;;;5034240;28;20183;-77
2021/12/24 06:07:27;;;;;;;13.70;9.73;;;2.60;99.90;;;;;;5033121;28;20209;-78
2021/12/24 06:09:53;;;;;;;14.07;10.40;;;2.60;99.90;;;;;;4997965;28;20197;-77
2021/12/24 06:12:19;;;;;;;12.77;10.20;;;2.60;99.90;;;;;;5027783;28;20230;-77
2021/12/24 06:14:46;;;;;;;10.77;9.70;;;2.60;99.90;;;;;;5007881;28;20184;-77
2021/12/24 06:17:17;;;;;;;15.23;10.63;;;2.60;99.90;;;;;;5021525;28;20199;-77
2021/12/24 06:19:43;;;;;;;16.37;10.47;;;2.60;99.90;;;;;;5028661;28;20172;-76
2021/12/24 06:22:09;;;;;;;12.70;10.60;;;2.80;99.90;;;;;;5028661;28;20181;-77
2021/12/24 06:24:34;;;;;;;12.67;10.23;;;2.60;99.90;;;;;;5017120;28;20265;-77
2021/12/24 06:27:00;;;;;;;12.00;10.27;;;2.60;99.90;;;;;;5011536;28;20290;-77
2021/12/24 06:29:26;;;;;;;15.93;9.73;;;2.60;99.90;;;;;;5026689;28;20169;-77
2021/12/24 06:31:52;;;;;;;13.90;9.60;;;2.60;99.90;;;;;;5007487;28;20203;-77
2021/12/24 06:34:19;;;;;;;13.70;9.57;;;2.60;99.90;;;;;;4989829;28;20260;-76
2021/12/24 06:36:47;;;;;;;13.40;9.73;;;2.60;99.90;;;;;;5011438;28;20199;-76
2021/12/24 06:39:15;;;;;;;14.90;9.33;;;2.50;99.90;;;;;;5029377;28;20189;-74
2021/12/24 06:41:41;;;;;;;11.90;9.60;;;2.50;99.90;;;;;;4997608;28;20706;-77
2021/12/24 06:44:10;;;;;;;15.90;10.43;;;2.50;99.90;;;;;;5006368;28;20651;-75
2021/12/24 06:46:37;;;;;;;12.57;9.97;;;2.50;99.90;;;;;;5026766;28;20182;-76
2021/12/24 06:49:03;;;;;;;12.43;9.10;;;2.60;99.90;;;;;;5011832;28;20222;-76
2021/12/24 06:51:29;;;;;;;14.17;9.97;;;2.60;99.90;;;;;;5028071;28;20213;-74
2021/12/24 06:53:55;;;;;;;11.90;9.70;;;2.60;99.90;;;;;;5024233;28;20258;-76
2021/12/24 06:56:21;;;;;;;14.03;9.10;;;2.60;99.90;;;;;;5029328;28;20636;-76
2021/12/24 06:58:47;;;;;;;12.20;8.97;;;2.80;99.90;;;;;;5000995;28;20172;-74
2021/12/24 07:01:13;;;;;;;11.57;9.23;;;2.60;99.90;;;;;;5029579;28;20180;-74
2021/12/24 07:03:39;;;;;;;14.03;9.63;;;2.60;99.90;;;;;;5026495;28;20179;-74
2021/12/24 07:06:06;;;;;;;15.70;10.03;;;2.60;99.90;;;;;;5011976;28;20234;-74
2021/12/24 07:08:32;;;;;;;15.37;10.23;;;2.60;99.90;;;;;;5025799;28;20300;-75
2021/12/24 07:10:58;;;;;;;19.70;12.53;;;2.70;99.90;;;;;;5027699;28;20206;-75
2021/12/24 07:13:24;;;;;;;9.57;8.40;;;2.70;99.90;;;;;;5028191;28;20175;-75
2021/12/24 07:15:50;;;;;;;12.50;9.37;;;2.70;99.90;;;;;;4999230;28;20266;-77
2021/12/24 07:18:16;;;;;;;14.23;9.43;;;2.70;99.90;;;;;;5025859;28;20289;-75
2021/12/24 07:20:42;;;;;;;11.07;8.30;;;2.70;99.90;;;;;;5002914;28;20218;-77
2021/12/24 07:23:08;;;;;;;11.47;9.50;;;2.70;99.90;;;;;;5028191;28;20183;-76
2021/12/24 07:25:33;;;;;;;11.63;9.00;;;2.60;99.90;;;;;;5025296;28;21612;-76
2021/12/24 07:28:01;;;;;;;16.93;9.90;;;2.70;99.90;;;;;;5023242;28;20281;-75
2021/12/24 07:30:27;;;;;;;9.50;8.50;;;2.70;99.90;;;;;;5010081;28;20191;-74
2021/12/24 07:32:53;;;;;;;12.20;9.50;;;2.60;99.90;;;;;;4993916;28;20175;-75
2021/12/24 07:35:18;;;;;;;10.60;9.07;;;2.60;99.90;;;;;;5009359;28;20271;-73
2021/12/24 07:37:44;;;;;;;12.13;10.20;;;2.70;99.90;;;;;;5027154;28;20336;-74
2021/12/24 07:40:15;;;;;;;11.50;9.10;;;2.70;99.90;;;;;;5009973;28;20182;-73
2021/12/24 07:42:42;;;;;;;10.53;9.37;;;2.70;99.90;;;;;;5006364;28;20224;-74
2021/12/24 07:45:09;;;;;;;15.80;10.57;;;2.80;99.90;;;;;;4999361;28;20178;-75
2021/12/24 07:47:40;;;;;;;12.97;11.30;;;2.80;99.90;;;;;;5027389;28;20205;-74
2021/12/24 07:52:54;;;;;;;13.60;10.27;;;2.90;99.90;;;;;;5030990;28;21152;-75
2021/12/24 07:55:20;;;;;;;13.73;10.07;;;2.90;99.90;;;;;;5003533;28;20176;-74
2021/12/24 07:57:49;;;;;;;10.83;8.83;;;3.00;99.90;;;;;;5013699;28;20693;-76
2021/12/24 08:00:16;;;;;;;13.63;10.50;;;2.90;99.90;;;;;;5025018;28;20188;-75
2021/12/24 08:02:42;;;;;;;14.70;10.53;;;3.00;99.90;;;;;;5032606;28;20175;-73
2021/12/24 08:05:08;;;;;;;14.13;10.07;;;3.00;99.90;;;;;;5030523;28;20606;-74
2021/12/24 08:07:34;;;;;;;13.90;10.50;;;3.00;99.90;;;;;;5031295;28;20230;-74
2021/12/24 08:09:59;;;;;;;13.33;10.00;;;3.10;99.90;;;;;;5008237;28;20565;-76
2021/12/24 08:12:25;;;;;;;12.43;9.60;;;3.10;99.90;;;;;;5017738;28;20250;-76
2021/12/24 08:14:51;;;;;;;13.97;9.33;;;3.20;99.90;;;;;;5031889;28;20575;-77
2021/12/24 08:17:16;;;;;;;10.90;9.03;;;3.30;99.90;;;;;;5010659;28;20626;-78
2021/12/24 08:19:42;;;;;;;11.80;9.20;;;3.50;99.90;;;;;;5012217;28;20733;-77
2021/12/24 08:22:10;;;;;;;9.43;7.53;;;3.60;99.90;;;;;;5009533;28;20177;-77
2021/12/24 08:24:37;;;;;;;10.20;7.90;;;3.70;99.90;;;;;;5028897;28;20174;-77
2021/12/24 08:27:03;;;;;;;9.17;7.13;;;3.90;99.90;;;;;;5018326;28;20628;-76
2021/12/24 08:29:29;;;;;;;9.80;7.70;;;4.00;99.90;;;;;;5036203;28;20187;-77
2021/12/24 08:31:55;;;;;;;11.87;8.30;;;4.10;99.90;;;;;;5036500;28;20203;-76
2021/12/24 08:34:22;;;;;;;18.23;11.30;;;4.20;99.90;;;;;;5018144;28;20172;-77
2021/12/24 08:36:51;;;;;;;11.07;7.63;;;4.30;99.90;;;;;;5032314;28;20201;-78
2021/12/24 08:39:19;;;;;;;9.83;7.73;;;4.50;99.90;;;;;;5021445;28;20710;-77
2021/12/24 08:41:45;;;;;;;11.00;7.67;;;4.70;99.90;;;;;;5061379;23;20294;-76
2021/12/24 08:44:11;;;;;;;8.03;6.57;;;4.80;99.90;;;;;;5047118;28;20179;-75
2021/12/24 08:46:37;;;;;;;7.67;6.33;;;4.90;99.90;;;;;;5019147;28;20672;-75
2021/12/24 08:49:04;;;;;;;8.07;6.10;;;4.90;99.90;;;;;;5042863;28;20169;-75
2021/12/24 08:51:30;;;;;;;6.47;5.10;;;4.90;99.90;;;;;;5046396;28;20772;-75
2021/12/24 08:53:56;;;;;;;7.20;5.63;;;5.00;99.90;;;;;;5035450;28;20664;-76
2021/12/24 08:56:23;;;;;;;9.60;5.53;;;5.20;99.90;;;;;;5017677;28;20180;-76
2021/12/24 08:58:49;;;;;;;7.10;5.33;;;5.20;99.90;;;;;;5014870;28;20190;-76
2021/12/24 09:01:15;;;;;;;5.27;4.77;;;5.20;99.90;;;;;;5026505;28;20209;-75
2021/12/24 09:03:41;;;;;;;7.53;5.37;;;5.40;99.90;;;;;;5027746;28;20267;-76
2021/12/24 09:06:07;;;;;;;6.10;4.97;;;5.40;99.90;;;;;;5027632;28;20274;-76
2021/12/24 09:08:33;;;;;;;9.00;5.43;;;5.40;99.90;;;;;;5025788;28;20193;-76
2021/12/24 09:10:58;;;;;;;6.37;5.30;;;5.40;99.90;;;;;;5011383;28;20215;-76
2021/12/24 09:13:24;;;;;;;5.50;5.00;;;5.50;99.90;;;;;;5032000;28;20176;-76
2021/12/24 09:15:50;;;;;;;5.80;4.80;;;5.50;99.90;;;;;;5008615;28;20183;-76
2021/12/24 09:18:16;;;;;;;5.73;4.50;;;5.60;99.90;;;;;;5033202;28;20179;-77
2021/12/24 09:20:44;;;;;;;5.70;5.10;;;5.60;99.90;;;;;;5010424;28;20195;-75
2021/12/24 09:23:11;;;;;;;7.10;5.53;;;5.70;99.90;;;;;;5030717;28;20192;-76
2021/12/24 09:25:37;;;;;;;5.73;5.00;;;5.70;99.90;;;;;;5032455;28;20691;-76
2021/12/24 09:28:04;;;;;;;5.40;4.90;;;5.70;99.90;;;;;;5024508;28;20220;-76
2021/12/24 09:30:31;;;;;;;6.50;5.50;;;5.70;99.90;;;;;;5029196;28;20784;-78
2021/12/24 09:32:57;;;;;;;7.93;5.90;;;5.80;99.90;;;;;;5032763;28;20681;-77
2021/12/24 09:35:24;;;;;;;6.13;5.40;;;5.80;99.90;;;;;;5027522;28;20179;-77
2021/12/24 09:37:50;;;;;;;8.40;5.07;;;5.80;99.90;;;;;;5021700;28;20185;-75
2021/12/24 09:40:17;;;;;;;6.07;5.40;;;5.80;99.90;;;;;;5022568;28;20188;-77
2021/12/24 09:42:43;;;;;;;5.60;4.87;;;5.80;99.90;;;;;;5029890;28;20222;-77
2021/12/24 09:45:10;;;;;;;7.20;5.07;;;5.80;99.90;;;;;;5031182;28;20178;-75
2021/12/24 09:47:36;;;;;;;5.13;4.67;;;5.80;99.90;;;;;;5031475;28;20172;-76
2021/12/24 09:50:03;;;;;;;5.83;5.33;;;5.80;99.90;;;;;;5030826;28;20190;-76
2021/12/24 09:52:29;;;;;;;5.83;5.23;;;5.80;99.90;;;;;;5030818;28;20226;-76
2021/12/24 09:54:54;;;;;;;5.50;4.93;;;5.80;99.90;;;;;;5027208;28;20193;-76
2021/12/24 09:57:20;;;;;;;6.03;5.33;;;5.80;99.90;;;;;;5029958;28;20241;-77
2021/12/24 09:59:46;;;;;;;8.00;5.20;;;5.90;99.90;;;;;;5025521;28;20176;-77
2021/12/24 10:02:19;;;;;;;6.17;5.00;;;5.80;99.90;;;;;;5032316;28;20196;-76
2021/12/24 10:04:46;;;;;;;6.03;5.40;;;5.80;99.90;;;;;;5024848;28;20175;-76
2021/12/24 10:07:16;;;;;;;6.70;5.17;;;5.70;99.90;;;;;;5023683;28;20181;-76
2021/12/24 10:09:44;;;;;;;7.30;5.90;;;5.80;99.90;;;;;;5014089;28;20252;-76
2021/12/24 10:12:17;;;;;;;7.23;5.67;;;5.70;99.90;;;;;;5010910;28;20256;-76
2021/12/24 10:14:57;;;;;;;7.43;5.63;;;5.80;99.90;;;;;;5014440;28;20204;-75
2021/12/24 10:17:30;;;;;;;8.13;5.60;;;5.80;99.90;;;;;;5022443;28;20210;-76
2021/12/24 10:19:58;;;;;;;7.23;6.30;;;6.10;99.90;;;;;;5027339;28;20199;-76
2021/12/24 10:22:25;;;;;;;6.90;5.63;;;5.80;99.90;;;;;;5031478;28;20249;-76
2021/12/24 10:25:01;;;;;;;5.13;4.43;;;5.70;99.90;;;;;;5028411;28;20264;-76
2021/12/24 10:27:34;;;;;;;6.03;5.07;;;6.30;99.90;;;;;;5031436;28;20545;-75
2021/12/24 10:30:14;;;;;;;8.20;6.10;;;5.70;99.90;;;;;;5024619;28;20176;-76
2021/12/24 10:32:40;;;;;;;7.17;5.83;;;5.70;99.90;;;;;;5029517;28;20193;-76
2021/12/24 10:35:23;;;;;;;7.03;5.60;;;5.70;99.90;;;;;;5014817;28;20185;-77
2021/12/24 10:38:09;;;;;;;7.77;5.83;;;5.70;99.90;;;;;;5030504;28;20180;-77
2021/12/24 10:40:35;;;;;;;8.03;6.03;;;5.70;99.90;;;;;;5012739;28;20196;-76
2021/12/24 10:43:00;;;;;;;7.37;5.37;;;5.70;99.90;;;;;;5028290;28;20321;-75
2021/12/24 10:45:26;;;;;;;8.57;5.60;;;5.70;99.90;;;;;;5031083;28;20262;-76
2021/12/24 10:47:52;;;;;;;6.77;6.07;;;5.80;99.90;;;;;;5030354;28;20189;-76
2021/12/24 10:53:17;;;;;;;7.27;5.73;;;5.70;99.90;;;;;;5030429;28;20207;-75
2021/12/24 10:55:54;;;;;;;6.00;5.40;;;5.80;99.90;;;;;;5005528;28;20188;-75
2021/12/24 10:58:23;;;;;;;6.53;5.93;;;5.80;99.90;;;;;;5026189;28;20262;-75
2021/12/24 11:00:52;;;;;;;6.53;5.90;;;5.80;99.90;;;;;;5029351;28;20249;-76
2021/12/24 11:03:22;;;;;;;9.90;5.87;;;5.80;99.90;;;;;;5030351;28;20185;-76
2021/12/24 11:06:02;;;;;;;7.03;6.33;;;5.70;99.90;;;;;;5028766;28;20192;-74
2021/12/24 11:08:28;;;;;;;6.60;5.90;;;5.80;99.90;;;;;;5006673;28;20189;-75
2021/12/24 11:10:58;;;;;;;8.00;6.27;;;5.80;99.90;;;;;;5023887;28;20303;-75
2021/12/24 11:13:32;;;;;;;8.13;6.57;;;5.80;99.90;;;;;;5029479;28;20185;-75
2021/12/24 11:16:02;;;;;;;7.33;6.63;;;5.90;99.90;;;;;;5031329;28;20179;-75
2021/12/24 11:18:34;;;;;;;8.20;5.70;;;5.80;99.90;;;;;;5030394;28;20179;-74
2021/12/24 11:21:08;;;;;;;8.00;5.90;;;5.90;99.90;;;;;;5008996;28;20208;-76
2021/12/24 11:23:40;;;;;;;6.53;5.83;;;5.80;99.90;;;;;;5029555;28;20187;-76
2021/12/24 11:26:09;;;;;;;8.17;6.40;;;5.90;99.90;;;;;;5030224;28;20180;-77
2021/12/24 11:28:36;;;;;;;9.97;7.23;;;5.80;99.90;;;;;;5024479;28;20201;-76
2021/12/24 11:31:10;;;;;;;7.33;6.63;;;5.90;99.90;;;;;;5024925;28;20224;-75
2021/12/24 11:33:38;;;;;;;7.93;6.87;;;5.90;99.90;;;;;;5023572;28;20189;-76
2021/12/24 11:36:06;;;;;;;6.80;6.10;;;5.80;99.90;;;;;;5022325;28;20182;-75
2021/12/24 11:38:50;;;;;;;6.63;5.37;;;5.80;99.90;;;;;;5026075;28;20193;-75
2021/12/24 11:41:19;;;;;;;6.40;5.47;;;5.90;99.90;;;;;;5028430;28;20226;-76
2021/12/24 11:43:49;;;;;;;7.10;5.80;;;5.90;99.90;;;;;;5023054;28;20194;-75
2021/12/24 11:46:18;;;;;;;6.93;5.77;;;6.00;99.90;;;;;;5026164;28;20186;-74
2021/12/24 11:48:47;;;;;;;6.43;5.77;;;5.90;99.90;;;;;;5011166;28;20186;-75
2021/12/24 11:51:19;;;;;;;6.00;5.40;;;5.90;99.90;;;;;;5020205;28;20234;-75
2021/12/24 11:53:46;;;;;;;7.07;6.37;;;5.90;99.90;;;;;;5030938;28;20177;-75
2021/12/24 11:56:16;;;;;;;7.40;5.93;;;5.80;99.90;;;;;;5026183;28;20246;-75
2021/12/24 11:58:53;;;;;;;8.50;6.60;;;5.90;99.90;;;;;;5020216;28;20540;-78
2021/12/24 12:01:22;;;;;;;7.80;7.07;;;5.80;99.90;;;;;;5029688;28;20245;-76
2021/12/24 12:03:52;;;;;;;7.60;6.70;;;5.80;99.90;;;;;;5028801;28;20191;-75
2021/12/24 12:06:17;;;;;;;6.83;6.13;;;5.80;99.90;;;;;;5026418;28;20189;-76
2021/12/24 12:08:45;;;;;;;8.30;6.70;;;5.80;99.90;;;;;;5022828;28;20217;-76
2021/12/24 12:11:13;;;;;;;10.23;6.47;;;5.80;99.90;;;;;;5026060;28;20210;-75
2021/12/24 12:13:45;;;;;;;8.23;6.70;;;5.80;99.90;;;;;;5025863;28;20212;-73
2021/12/24 12:16:43;;;;;;;9.40;7.03;;;5.80;99.90;;;;;;5030482;28;20184;-75
2021/12/24 12:22:12;;;;;;;7.87;6.77;;;5.70;99.90;;;;;;5029829;28;20620;-77
2021/12/24 12:27:26;;;;;;;11.03;7.13;;;5.60;99.90;;;;;;5022923;28;20193;-75
2021/12/24 12:29:52;;;;;;;9.57;7.13;;;5.60;99.90;;;;;;5017314;28;20182;-76
2021/12/24 12:32:17;;;;;;;9.50;7.50;;;5.60;99.90;;;;;;5029224;28;20230;-76
2021/12/24 12:34:43;;;;;;;11.17;8.13;;;5.50;99.90;;;;;;5026722;28;20188;-76
2021/12/24 12:37:24;;;;;;;10.07;7.40;;;5.50;99.90;;;;;;5029078;28;20188;-76
2021/12/24 12:40:18;;;;;;;7.93;7.13;;;5.40;99.90;;;;;;5027616;28;20234;-75
2021/12/24 12:42:54;;;;;;;8.43;6.90;;;5.40;99.90;;;;;;5011823;28;20278;-76
2021/12/24 12:45:42;;;;;;;8.70;7.10;;;5.40;99.90;;;;;;5033276;28;20180;-77
2021/12/24 12:48:16;;;;;;;7.50;6.33;;;5.50;99.90;;;;;;5019358;28;20275;-76
2021/12/24 12:50:52;;;;;;;9.37;7.40;;;5.50;99.90;;;;;;5028146;28;20212;-76
2021/12/24 12:53:26;;;;;;;11.97;7.97;;;5.50;99.90;;;;;;5033739;28;20636;-76
2021/12/24 12:56:21;;;;;;;9.97;8.40;;;5.50;99.90;;;;;;5029598;28;20178;-76
2021/12/24 12:59:03;;;;;;;10.03;7.70;;;5.50;99.90;;;;;;5009350;28;20190;-76
2021/12/24 13:01:30;;;;;;;9.47;7.97;;;5.50;99.90;;;;;;5028688;28;20223;-74
2021/12/24 13:03:55;;;;;;;11.50;7.97;;;5.50;99.90;;;;;;5031741;28;20188;-76
2021/12/24 13:06:39;;;;;;;8.87;7.90;;;5.50;99.90;;;;;;5030666;28;20198;-76
2021/12/24 13:09:07;;;;;;;11.10;7.53;;;5.50;99.90;;;;;;5031161;28;20173;-76
2021/12/24 13:11:38;;;;;;;10.10;7.80;;;5.60;99.90;;;;;;5031419;28;20273;-76
2021/12/24 13:14:05;;;;;;;9.27;7.57;;;5.60;99.90;;;;;;5030336;28;20260;-73
2021/12/24 13:16:52;;;;;;;7.90;6.73;;;5.60;99.90;;;;;;5032783;28;20255;-76
2021/12/24 13:24:59;;;;;;;10.13;7.70;;;5.70;99.90;;;;;;5022044;28;20211;-75
2021/12/24 13:27:31;;;;;;;12.73;7.37;;;5.70;99.90;;;;;;5029764;28;20179;-75
2021/12/24 13:30:14;;;;;;;9.83;7.40;;;5.70;99.90;;;;;;5024472;28;20187;-76
2021/12/24 13:32:48;;;;;;;9.00;7.50;;;5.70;99.90;;;;;;5024679;28;20256;-75
2021/12/24 13:35:16;;;;;;;8.17;7.37;;;5.70;99.90;;;;;;5012535;28;20650;-75
2021/12/24 13:37:46;;;;;;;9.90;7.73;;;5.80;99.90;;;;;;5031801;28;20188;-75
2021/12/24 13:40:14;;;;;;;9.23;7.70;;;5.70;99.90;;;;;;5029166;28;20253;-75
2021/12/24 13:42:57;;;;;;;10.47;7.77;;;5.80;99.90;;;;;;5027600;28;20581;-75
2021/12/24 13:45:26;;;;;;;8.50;7.53;;;5.80;99.90;;;;;;5022517;28;20198;-75
2021/12/24 13:48:07;;;;;;;8.93;8.13;;;5.80;99.90;;;;;;5028603;28;20208;-76
2021/12/24 13:56:14;;;;;;;10.97;8.63;;;5.90;99.90;;;;;;5029063;28;20723;-75
2021/12/24 13:58:40;;;;;;;7.80;7.10;;;5.90;99.90;;;;;;5030953;28;20564;-76
2021/12/24 14:01:05;;;;;;;8.93;7.07;;;5.80;99.90;;;;;;5029066;28;20236;-76
2021/12/24 14:03:34;;;;;;;12.10;7.53;;;5.80;99.90;;;;;;5015075;28;20191;-75
2021/12/24 14:06:03;;;;;;;8.63;7.70;;;5.80;99.90;;;;;;5028562;28;20186;-76
2021/12/24 14:08:32;;;;;;;7.70;6.87;;;5.70;99.90;;;;;;5027003;28;20288;-75
2021/12/24 14:11:04;;;;;;;7.30;6.60;;;5.80;99.90;;;;;;5010137;28;20217;-76
2021/12/24 14:13:34;;;;;;;9.47;7.57;;;5.70;99.90;;;;;;5026460;28;20597;-74
2021/12/24 14:24:20;;;;;;;8.90;6.57;;;5.80;99.90;;;;;;5025397;28;20182;-76
2021/12/24 14:27:00;;;;;;;7.17;6.47;;;5.90;99.90;;;;;;5009565;28;20191;-74
2021/12/24 14:29:43;;;;;;;8.23;6.87;;;5.70;99.90;;;;;;5028110;28;20180;-75
2021/12/24 14:32:12;;;;;;;9.77;7.60;;;5.80;99.90;;;;;;5012968;28;20208;-75
2021/12/24 14:34:45;;;;;;;9.83;8.43;;;5.70;99.90;;;;;;5027490;28;20196;-76
2021/12/24 14:37:17;;;;;;;9.13;8.20;;;5.70;99.90;;;;;;5030182;28;20207;-75
2021/12/24 14:39:46;;;;;;;11.37;8.80;;;5.80;99.90;;;;;;5029699;28;20651;-75
2021/12/24 14:42:17;;;;;;;9.77;8.10;;;5.70;99.90;;;;;;5015463;28;20230;-78
2021/12/24 14:44:44;;;;;;;8.83;7.57;;;5.70;99.90;;;;;;5027209;28;20296;-78
2021/12/24 14:47:11;;;;;;;7.83;7.13;;;5.70;99.90;;;;;;5027326;28;20215;-77
2021/12/24 14:49:39;;;;;;;8.77;7.47;;;5.80;99.90;;;;;;5014803;28;20185;-78
2021/12/24 14:52:23;;;;;;;8.03;7.23;;;5.70;99.90;;;;;;5011392;28;20712;-77
2021/12/24 14:55:11;;;;;;;8.03;7.23;;;5.80;99.90;;;;;;5028569;28;20176;-77
2021/12/24 14:57:51;;;;;;;9.00;7.50;;;5.80;99.90;;;;;;5025054;28;20182;-78
2021/12/24 15:00:20;;;;;;;7.90;6.07;;;5.90;99.90;;;;;;5029736;28;20193;-77
2021/12/24 15:02:47;;;;;;;7.20;6.50;;;5.80;99.90;;;;;;5028257;28;20198;-77
2021/12/24 15:05:25;;;;;;;6.70;5.90;;;5.90;99.90;;;;;;5026635;28;20181;-77
2021/12/24 15:07:51;;;;;;;7.13;6.40;;;5.80;99.90;;;;;;5034774;28;20172;-77
2021/12/24 15:10:18;;;;;;;7.03;5.93;;;5.90;99.90;;;;;;5030963;28;20185;-78
2021/12/24 15:12:48;;;;;;;8.60;7.80;;;6.00;99.90;;;;;;5026705;28;20220;-77